Time;durP1;ratioP1;P1;durP2;ratioP2;P2;SDS_P1;SDS_P2;PMS_P1;PMS_P2;Temp;Humidity;BMP_temperature;BMP_pressure;BME280_temperature;BME280_humidity;BME280_pressure;Samples;Min_cycle;Max_cycle;Signal;HPM_P1;HPM_P2
2022/03/03 00:00:20;;;;;;;35.97;23.45;;;4.40;94.60;;;;;;5069537;28;20036;-81
2022/03/03 00:02:45;;;;;;;36.50;23.30;;;4.40;94.50;;;;;;5069290;28;20093;-81
2022/03/03 00:05:12;;;;;;;36.97;23.17;;;4.40;94.60;;;;;;5069462;28;20045;-81
2022/03/03 00:07:38;;;;;;;36.58;23.10;;;4.40;94.60;;;;;;5069810;28;20167;-81
2022/03/03 00:10:06;;;;;;;35.30;23.15;;;4.40;94.80;;;;;;5071296;28;20044;-81
2022/03/03 00:12:32;;;;;;;36.10;23.40;;;4.40;94.70;;;;;;5056459;28;20101;-81
2022/03/03 00:14:58;;;;;;;36.45;23.05;;;4.30;94.70;;;;;;5056723;28;20052;-81
2022/03/03 00:17:23;;;;;;;38.10;22.88;;;4.30;94.60;;;;;;5073147;28;20048;-81
2022/03/03 00:19:49;;;;;;;38.30;24.52;;;4.30;94.80;;;;;;5073163;28;20033;-81
2022/03/03 00:22:15;;;;;;;35.35;22.65;;;4.30;94.90;;;;;;5073261;28;20071;-81
2022/03/03 00:24:42;;;;;;;47.10;26.17;;;4.30;94.80;;;;;;5073016;28;20041;-81
2022/03/03 00:27:07;;;;;;;33.03;21.98;;;4.20;94.80;;;;;;5073250;28;20040;-81
2022/03/03 00:29:33;;;;;;;33.65;21.90;;;4.20;94.90;;;;;;5072883;28;20090;-81
2022/03/03 00:31:59;;;;;;;34.92;21.65;;;4.20;95.20;;;;;;5072965;28;20124;-81
2022/03/03 00:34:24;;;;;;;33.95;21.15;;;4.10;94.90;;;;;;5073300;28;20033;-81
2022/03/03 00:36:51;;;;;;;32.63;21.05;;;4.10;94.80;;;;;;5056530;28;20131;-81
2022/03/03 00:39:17;;;;;;;34.15;20.45;;;4.10;94.70;;;;;;5056253;28;20570;-81
2022/03/03 00:41:42;;;;;;;34.55;22.02;;;4.10;94.80;;;;;;5072993;28;20472;-81
2022/03/03 00:44:09;;;;;;;31.95;19.90;;;4.00;94.70;;;;;;5056329;28;20123;-81
2022/03/03 00:46:36;;;;;;;33.78;20.63;;;4.00;94.50;;;;;;5072788;28;20404;-81
2022/03/03 00:49:03;;;;;;;34.05;20.42;;;3.90;94.60;;;;;;5055816;28;20127;-81
2022/03/03 00:51:28;;;;;;;32.92;22.58;;;3.90;94.60;;;;;;5055983;28;20041;-81
2022/03/03 00:53:55;;;;;;;32.65;21.08;;;3.90;94.80;;;;;;5056117;28;20036;-81
2022/03/03 00:56:20;;;;;;;29.92;20.40;;;3.90;94.90;;;;;;5072703;28;20044;-81
2022/03/03 00:58:46;;;;;;;34.38;22.05;;;3.80;94.80;;;;;;5056014;28;20685;-80
2022/03/03 01:01:12;;;;;;;33.78;21.15;;;3.80;94.90;;;;;;5055536;28;20047;-81
2022/03/03 01:03:38;;;;;;;32.40;20.45;;;3.80;94.90;;;;;;5072437;28;20439;-81
2022/03/03 01:06:04;;;;;;;34.45;21.98;;;3.80;94.90;;;;;;5072524;28;20041;-81
2022/03/03 01:08:30;;;;;;;31.13;20.50;;;3.80;94.90;;;;;;5072378;28;20038;-80
2022/03/03 01:10:55;;;;;;;32.88;21.08;;;3.70;95.10;;;;;;5055154;28;20068;-81
2022/03/03 01:13:22;;;;;;;33.33;19.70;;;3.70;95.10;;;;;;5072287;28;20132;-80
2022/03/03 01:15:48;;;;;;;34.25;21.33;;;3.80;94.90;;;;;;5072144;28;20502;-81
2022/03/03 01:18:14;;;;;;;32.15;20.00;;;3.70;95.00;;;;;;5072334;28;20044;-81
2022/03/03 01:20:39;;;;;;;33.85;20.90;;;3.70;95.00;;;;;;5071740;28;20044;-81
2022/03/03 01:23:05;;;;;;;31.63;20.25;;;3.70;95.20;;;;;;5055548;28;20051;-81
2022/03/03 01:25:31;;;;;;;34.70;21.35;;;3.70;95.10;;;;;;5072197;28;20486;-80
2022/03/03 01:27:56;;;;;;;36.25;21.90;;;3.70;95.20;;;;;;5072078;28;20478;-81
2022/03/03 01:30:22;;;;;;;34.28;21.40;;;3.60;95.10;;;;;;5071810;28;20040;-81
2022/03/03 01:32:48;;;;;;;30.98;20.33;;;3.60;95.40;;;;;;5071714;28;20047;-81
2022/03/03 01:35:13;;;;;;;31.50;21.13;;;3.60;95.30;;;;;;5072306;28;20043;-81
2022/03/03 01:37:39;;;;;;;32.10;20.58;;;3.50;95.30;;;;;;5071950;28;20409;-81
2022/03/03 01:40:06;;;;;;;32.88;20.90;;;3.50;95.30;;;;;;5054790;28;20044;-81
2022/03/03 01:42:32;;;;;;;32.17;20.75;;;3.50;95.50;;;;;;5071682;28;20087;-81
2022/03/03 01:44:57;;;;;;;27.35;18.75;;;3.40;95.60;;;;;;5054947;28;20080;-80
2022/03/03 01:47:24;;;;;;;33.58;20.35;;;3.40;95.70;;;;;;5071725;28;20036;-81
2022/03/03 01:49:53;;;;;;;30.20;19.70;;;3.40;95.80;;;;;;5071855;28;20054;-81
2022/03/03 01:52:19;;;;;;;34.20;20.83;;;3.30;95.70;;;;;;5071272;28;20494;-81
2022/03/03 01:54:44;;;;;;;31.85;20.40;;;3.30;95.70;;;;;;5071674;28;20372;-81
2022/03/03 01:57:10;;;;;;;33.15;20.23;;;3.30;95.60;;;;;;5071507;28;20516;-81
2022/03/03 01:59:37;;;;;;;31.60;20.27;;;3.20;95.80;;;;;;5071305;28;20056;-81
2022/03/03 02:02:05;;;;;;;31.08;20.27;;;3.20;95.70;;;;;;5071364;28;20044;-81
2022/03/03 02:04:32;;;;;;;31.10;19.52;;;3.20;95.70;;;;;;5071484;28;20051;-80
2022/03/03 02:06:58;;;;;;;32.53;20.73;;;3.20;95.70;;;;;;5071486;28;20810;-81
2022/03/03 02:09:24;;;;;;;38.88;23.08;;;3.10;95.50;;;;;;5054288;28;20040;-81
2022/03/03 02:11:50;;;;;;;31.73;20.38;;;3.10;95.50;;;;;;5071428;28;20044;-81
2022/03/03 02:14:15;;;;;;;31.52;20.20;;;3.10;95.60;;;;;;5071125;28;20036;-81
2022/03/03 02:16:41;;;;;;;30.17;19.63;;;3.10;95.60;;;;;;5070736;28;20051;-81
2022/03/03 02:19:07;;;;;;;29.30;18.38;;;3.10;95.60;;;;;;5071435;28;20047;-81
2022/03/03 02:21:33;;;;;;;30.95;18.65;;;3.00;95.60;;;;;;5070703;28;20083;-81
2022/03/03 02:24:01;;;;;;;31.23;19.63;;;3.00;95.70;;;;;;5071132;28;20044;-81
2022/03/03 02:26:26;;;;;;;31.80;21.58;;;3.00;95.80;;;;;;5071114;28;20509;-81
2022/03/03 02:28:53;;;;;;;28.38;19.85;;;3.00;95.90;;;;;;5070904;28;20146;-81
2022/03/03 02:31:20;;;;;;;28.73;19.95;;;3.00;96.00;;;;;;5070517;28;20036;-80
2022/03/03 02:33:46;;;;;;;30.95;19.38;;;3.00;96.00;;;;;;5070680;28;20138;-81
2022/03/03 02:36:23;;;;;;;27.77;17.15;;;3.00;95.90;;;;;;5070622;28;20139;-81
2022/03/03 02:38:51;;;;;;;33.97;19.25;;;3.00;95.80;;;;;;5070673;28;20082;-81
2022/03/03 02:41:17;;;;;;;28.45;19.10;;;2.90;95.70;;;;;;5053742;28;20049;-81
2022/03/03 02:43:43;;;;;;;29.60;19.35;;;2.90;95.50;;;;;;5070616;28;20040;-81
2022/03/03 02:46:09;;;;;;;29.80;19.77;;;2.90;95.70;;;;;;5053982;28;20086;-81
2022/03/03 02:48:34;;;;;;;30.13;19.23;;;2.90;95.60;;;;;;5070240;28;20068;-81
2022/03/03 02:51:00;;;;;;;30.27;19.25;;;2.90;95.60;;;;;;5070201;28;20075;-81
2022/03/03 02:53:26;;;;;;;28.10;18.70;;;2.80;95.40;;;;;;5070380;28;20473;-81
2022/03/03 02:55:52;;;;;;;30.08;18.90;;;2.80;95.50;;;;;;5053867;28;20040;-81
2022/03/03 02:58:18;;;;;;;30.35;19.52;;;2.70;95.60;;;;;;5070767;28;20045;-81
2022/03/03 03:00:44;;;;;;;30.75;19.60;;;2.70;95.60;;;;;;5070201;28;20421;-82
2022/03/03 03:03:10;;;;;;;29.95;19.65;;;2.70;95.70;;;;;;5070119;28;20036;-82
2022/03/03 03:05:36;;;;;;;30.92;19.90;;;2.70;95.80;;;;;;5070263;28;20051;-82
2022/03/03 03:08:03;;;;;;;31.02;18.90;;;2.60;95.70;;;;;;5070336;28;20127;-81
2022/03/03 03:10:29;;;;;;;32.55;18.33;;;2.60;95.80;;;;;;5069979;28;20044;-81
2022/03/03 03:12:55;;;;;;;28.20;19.23;;;2.60;96.00;;;;;;5070178;28;20050;-81
2022/03/03 03:15:21;;;;;;;28.52;19.25;;;2.60;96.10;;;;;;5070712;28;20040;-81
2022/03/03 03:17:47;;;;;;;30.52;18.73;;;2.60;96.00;;;;;;5070101;28;20489;-81
2022/03/03 03:20:13;;;;;;;30.40;20.00;;;2.60;96.20;;;;;;5070302;28;20044;-81
2022/03/03 03:22:39;;;;;;;28.25;18.15;;;2.60;96.10;;;;;;5053099;28;20036;-81
2022/03/03 03:25:08;;;;;;;28.15;18.27;;;2.60;96.10;;;;;;5070362;28;20045;-81
2022/03/03 03:27:35;;;;;;;26.70;17.67;;;2.60;96.10;;;;;;5070109;28;20083;-81
2022/03/03 03:30:01;;;;;;;30.95;19.55;;;2.50;96.10;;;;;;5053508;28;20379;-81
2022/03/03 03:32:26;;;;;;;28.60;18.30;;;2.60;96.00;;;;;;5069685;28;20036;-81
2022/03/03 03:34:52;;;;;;;28.50;18.10;;;2.50;95.90;;;;;;5070034;28;20044;-81
2022/03/03 03:37:17;;;;;;;30.92;20.10;;;2.50;96.00;;;;;;5070178;28;20040;-81
2022/03/03 03:39:43;;;;;;;28.92;18.40;;;2.50;95.90;;;;;;5069806;28;20036;-81
2022/03/03 03:42:09;;;;;;;30.45;19.45;;;2.40;96.00;;;;;;5069910;28;20490;-82
2022/03/03 03:44:35;;;;;;;28.85;18.95;;;2.40;96.00;;;;;;5072768;28;20116;-81
2022/03/03 03:47:02;;;;;;;29.88;19.08;;;2.40;96.10;;;;;;5074352;28;20036;-81
2022/03/03 03:49:28;;;;;;;34.50;20.77;;;2.40;96.10;;;;;;5057364;28;20060;-81
2022/03/03 03:51:53;;;;;;;31.38;18.38;;;2.40;96.10;;;;;;5074232;28;20497;-81
2022/03/03 03:54:19;;;;;;;35.08;20.75;;;2.30;96.10;;;;;;5074393;28;20041;-81
2022/03/03 03:56:45;;;;;;;34.22;21.08;;;2.30;96.50;;;;;;5058060;28;20040;-81
2022/03/03 03:59:11;;;;;;;31.10;19.60;;;2.30;96.30;;;;;;5074716;28;20066;-81
2022/03/03 04:01:36;;;;;;;32.92;18.95;;;2.30;96.40;;;;;;5073886;28;21818;-81
2022/03/03 04:04:02;;;;;;;32.03;20.80;;;2.30;96.30;;;;;;5073951;28;20074;-81
2022/03/03 04:06:27;;;;;;;33.45;19.25;;;2.30;96.20;;;;;;5073627;28;20083;-81
2022/03/03 04:08:53;;;;;;;30.27;18.65;;;2.30;96.40;;;;;;5073553;28;20436;-82
2022/03/03 04:11:19;;;;;;;28.45;18.20;;;2.30;96.30;;;;;;5073458;28;20094;-81
2022/03/03 04:13:44;;;;;;;33.17;19.35;;;2.30;96.20;;;;;;5073635;28;20390;-81
2022/03/03 04:16:10;;;;;;;30.48;19.38;;;2.30;96.30;;;;;;5073331;28;20036;-81
2022/03/03 04:18:36;;;;;;;35.33;20.88;;;2.30;96.20;;;;;;5073311;28;20554;-81
2022/03/03 04:21:01;;;;;;;30.77;18.88;;;2.30;96.20;;;;;;5073184;28;20051;-81
2022/03/03 04:23:27;;;;;;;28.50;18.67;;;2.30;96.20;;;;;;5073217;28;20037;-81
2022/03/03 04:25:52;;;;;;;32.08;19.67;;;2.30;96.40;;;;;;5073129;28;20420;-81
2022/03/03 04:28:18;;;;;;;26.38;17.48;;;2.30;96.30;;;;;;5073197;28;20029;-81
2022/03/03 04:30:43;;;;;;;31.02;18.02;;;2.30;96.20;;;;;;5072621;28;20067;-81
2022/03/03 04:33:09;;;;;;;28.90;19.13;;;2.30;96.10;;;;;;5056422;28;20029;-81
2022/03/03 04:35:35;;;;;;;29.45;18.25;;;2.30;96.20;;;;;;5073065;28;20090;-81
2022/03/03 04:38:00;;;;;;;28.85;18.08;;;2.30;96.20;;;;;;5073329;28;20032;-81
2022/03/03 04:40:26;;;;;;;28.58;17.10;;;2.30;96.10;;;;;;5055865;28;20627;-81
2022/03/03 04:42:51;;;;;;;29.40;18.95;;;2.30;96.20;;;;;;5056024;28;20040;-81
2022/03/03 04:45:17;;;;;;;28.88;18.13;;;2.30;96.00;;;;;;5072749;28;20231;-81
2022/03/03 04:47:43;;;;;;;26.90;17.95;;;2.30;96.00;;;;;;5072822;28;20036;-82
2022/03/03 04:50:09;;;;;;;29.30;18.75;;;2.30;96.00;;;;;;5072935;28;20032;-81
2022/03/03 04:52:35;;;;;;;30.92;19.20;;;2.30;96.00;;;;;;5055805;28;20035;-81
2022/03/03 04:55:02;;;;;;;27.33;18.52;;;2.30;96.10;;;;;;5055590;28;20393;-81
2022/03/03 04:57:28;;;;;;;31.25;19.20;;;2.30;96.10;;;;;;5072615;28;20405;-81
2022/03/03 04:59:53;;;;;;;26.92;17.98;;;2.30;96.20;;;;;;5055701;28;20036;-81
2022/03/03 05:02:19;;;;;;;31.02;19.35;;;2.30;96.20;;;;;;5055885;28;20040;-81
2022/03/03 05:04:47;;;;;;;27.60;17.00;;;2.20;96.30;;;;;;5055686;28;20430;-81
2022/03/03 05:07:13;;;;;;;27.42;17.90;;;2.20;96.40;;;;;;5072651;28;20086;-81
2022/03/03 05:09:39;;;;;;;28.20;16.98;;;2.20;96.40;;;;;;5072206;28;20036;-81
2022/03/03 05:12:05;;;;;;;27.70;18.38;;;2.20;96.50;;;;;;5072363;28;20047;-81
2022/03/03 05:14:31;;;;;;;28.00;17.88;;;2.10;96.60;;;;;;5072049;28;20115;-81
2022/03/03 05:16:57;;;;;;;27.17;17.55;;;2.10;96.60;;;;;;5055350;28;20456;-81
2022/03/03 05:19:22;;;;;;;27.85;18.30;;;2.00;96.80;;;;;;5055562;28;20102;-81
2022/03/03 05:21:48;;;;;;;30.85;18.60;;;2.00;97.20;;;;;;5072268;28;20048;-81
2022/03/03 05:24:14;;;;;;;28.08;17.50;;;2.00;97.10;;;;;;5072125;28;20498;-81
2022/03/03 05:26:39;;;;;;;29.23;18.27;;;1.90;97.00;;;;;;5071899;28;20048;-81
2022/03/03 05:29:05;;;;;;;30.30;18.83;;;1.90;97.50;;;;;;5071943;28;20047;-81
2022/03/03 05:31:30;;;;;;;29.50;19.13;;;1.90;97.40;;;;;;5071573;28;20036;-81
2022/03/03 05:33:56;;;;;;;28.65;18.80;;;1.80;97.40;;;;;;5072139;28;20042;-81
2022/03/03 05:36:24;;;;;;;31.30;18.73;;;1.80;97.50;;;;;;5072163;28;20253;-81
2022/03/03 05:38:50;;;;;;;29.00;17.38;;;1.80;97.70;;;;;;5071978;28;20040;-81
2022/03/03 05:41:16;;;;;;;26.17;17.35;;;1.80;97.70;;;;;;5071850;28;20444;-81
2022/03/03 05:43:42;;;;;;;27.92;18.33;;;1.70;97.80;;;;;;5055130;28;20106;-81
2022/03/03 05:46:08;;;;;;;30.80;19.10;;;1.70;97.80;;;;;;5071842;28;20115;-81
2022/03/03 05:48:34;;;;;;;31.40;18.67;;;1.70;98.10;;;;;;5071837;28;20524;-81
2022/03/03 05:51:00;;;;;;;30.17;17.45;;;1.70;98.10;;;;;;5054576;28;20041;-81
2022/03/03 05:53:25;;;;;;;24.83;17.23;;;1.70;98.10;;;;;;5054856;28;20124;-81
2022/03/03 05:55:53;;;;;;;27.30;18.08;;;1.60;98.00;;;;;;5071642;28;20032;-81
2022/03/03 05:58:21;;;;;;;27.88;18.08;;;1.60;98.00;;;;;;5071550;28;20417;-81
2022/03/03 06:00:49;;;;;;;29.13;17.38;;;1.60;98.30;;;;;;5054454;28;20049;-81
2022/03/03 06:03:17;;;;;;;30.30;18.58;;;1.60;98.00;;;;;;5071170;28;20500;-81
2022/03/03 06:05:51;;;;;;;27.05;17.45;;;1.60;98.00;;;;;;5071219;28;20045;-81
2022/03/03 06:08:23;;;;;;;26.88;16.92;;;1.60;98.20;;;;;;5054037;28;20040;-81
2022/03/03 06:10:53;;;;;;;28.95;17.30;;;1.50;98.20;;;;;;5070537;28;20040;-81
2022/03/03 06:13:25;;;;;;;26.75;16.80;;;1.50;98.30;;;;;;5054615;28;20036;-81
2022/03/03 06:15:52;;;;;;;28.27;18.13;;;1.50;98.30;;;;;;5070654;28;20047;-81
2022/03/03 06:18:26;;;;;;;30.35;18.38;;;1.50;98.30;;;;;;5071489;28;20044;-81
2022/03/03 06:20:52;;;;;;;29.52;18.27;;;1.50;98.20;;;;;;5054317;28;20397;-81
2022/03/03 06:23:19;;;;;;;29.58;18.63;;;1.50;98.10;;;;;;5070485;28;20123;-81
2022/03/03 06:25:46;;;;;;;26.45;17.58;;;1.50;98.30;;;;;;5031881;28;20037;-81
2022/03/03 06:28:11;;;;;;;28.60;17.70;;;1.50;98.30;;;;;;5050086;28;20094;-81
2022/03/03 06:30:37;;;;;;;25.38;16.63;;;1.50;98.30;;;;;;5033988;28;20434;-81
2022/03/03 06:33:06;;;;;;;26.40;17.90;;;1.50;98.50;;;;;;5050857;28;20048;-81
2022/03/03 06:35:35;;;;;;;27.92;17.33;;;1.50;98.50;;;;;;5050803;28;20502;-81
2022/03/03 06:38:04;;;;;;;25.08;17.08;;;1.50;98.30;;;;;;5050430;28;20112;-81
2022/03/03 06:40:30;;;;;;;28.50;18.77;;;1.50;98.60;;;;;;5050610;28;20051;-81
2022/03/03 06:43:00;;;;;;;27.70;18.02;;;1.50;98.30;;;;;;5050561;28;20045;-81
2022/03/03 06:45:29;;;;;;;29.38;17.52;;;1.50;98.10;;;;;;5050646;28;20159;-81
2022/03/03 06:47:56;;;;;;;29.25;17.90;;;1.60;98.10;;;;;;5050691;28;20410;-81
2022/03/03 06:50:22;;;;;;;28.20;17.75;;;1.60;97.90;;;;;;5050200;28;20041;-81
2022/03/03 06:52:49;;;;;;;26.23;17.35;;;1.60;97.70;;;;;;5050584;28;20084;-81
2022/03/03 06:55:26;;;;;;;26.67;17.98;;;1.60;97.70;;;;;;5050385;28;20094;-81
2022/03/03 06:57:57;;;;;;;27.80;17.27;;;1.70;97.70;;;;;;5050547;28;20045;-81
2022/03/03 07:00:25;;;;;;;28.83;17.52;;;1.70;97.60;;;;;;5050207;28;20049;-81
2022/03/03 07:02:52;;;;;;;28.23;17.63;;;1.70;97.40;;;;;;5049839;28;20123;-81
2022/03/03 07:05:18;;;;;;;26.02;17.65;;;1.80;97.30;;;;;;5050159;28;20058;-81
2022/03/03 07:07:46;;;;;;;29.13;17.90;;;1.80;97.30;;;;;;5050214;28;20036;-81
2022/03/03 07:10:13;;;;;;;30.15;17.27;;;1.90;97.20;;;;;;5050053;28;20033;-81
2022/03/03 07:12:39;;;;;;;27.20;16.58;;;1.90;97.10;;;;;;5050339;28;20047;-81
2022/03/03 07:15:06;;;;;;;27.35;17.20;;;1.90;97.30;;;;;;5033916;28;20119;-81
2022/03/03 07:17:45;;;;;;;23.75;16.50;;;2.00;97.10;;;;;;5033469;28;20041;-81
2022/03/03 07:20:17;;;;;;;31.13;17.40;;;2.00;97.10;;;;;;5050098;28;20041;-81
2022/03/03 07:23:03;;;;;;;28.40;17.38;;;2.00;97.00;;;;;;5049906;28;20044;-81
2022/03/03 07:25:49;;;;;;;24.48;15.82;;;2.10;97.20;;;;;;5049998;28;20520;-81
2022/03/03 07:28:18;;;;;;;25.88;16.05;;;2.20;97.00;;;;;;5050321;28;20391;-81
2022/03/03 07:30:44;;;;;;;27.13;17.23;;;2.20;96.90;;;;;;5049680;28;20124;-81
2022/03/03 07:33:35;;;;;;;29.90;18.00;;;2.20;96.80;;;;;;5033520;28;20033;-82
2022/03/03 07:36:02;;;;;;;28.35;17.55;;;2.30;96.80;;;;;;5050085;28;20044;-81
2022/03/03 07:38:35;;;;;;;25.70;16.85;;;2.40;96.70;;;;;;5033271;28;20048;-81
2022/03/03 07:41:01;;;;;;;;;;;2.40;96.70;;;;;;5033591;28;20048;-81
2022/03/03 07:43:28;;;;;;;27.02;16.23;;;2.50;97.50;;;;;;5033713;28;19924;-81
2022/03/03 07:45:53;;;;;;;25.00;16.65;;;2.50;96.50;;;;;;5049689;28;20094;-81
2022/03/03 07:48:22;;;;;;;28.45;17.70;;;2.60;96.40;;;;;;5050035;28;20045;-81
2022/03/03 07:50:49;;;;;;;26.15;16.92;;;2.70;96.40;;;;;;5049411;28;20090;-82
2022/03/03 07:53:15;;;;;;;27.45;16.98;;;2.70;96.30;;;;;;5050050;28;20521;-81
2022/03/03 07:55:47;;;;;;;27.48;16.85;;;2.80;96.20;;;;;;5050204;28;20057;-81
2022/03/03 07:58:19;;;;;;;28.98;16.70;;;2.90;96.10;;;;;;5047744;28;20513;-82
2022/03/03 08:00:49;;;;;;;24.38;16.80;;;2.90;96.00;;;;;;5048537;28;20049;-81
2022/03/03 08:03:20;;;;;;;25.55;17.35;;;3.00;96.00;;;;;;5068827;28;20059;-81
2022/03/03 08:05:48;;;;;;;27.85;18.15;;;3.10;96.00;;;;;;5068756;28;20405;-81
2022/03/03 08:08:16;;;;;;;26.88;17.40;;;3.10;95.80;;;;;;5052527;28;20080;-82
2022/03/03 08:10:43;;;;;;;27.42;18.05;;;3.20;95.90;;;;;;5068934;28;20124;-81
2022/03/03 08:13:15;;;;;;;26.13;16.83;;;3.30;95.70;;;;;;5069288;28;20032;-81
2022/03/03 08:15:42;;;;;;;26.63;16.52;;;3.30;95.70;;;;;;5051207;28;20044;-81
2022/03/03 08:18:08;;;;;;;27.15;17.38;;;3.40;95.50;;;;;;5048955;28;20041;-81
2022/03/03 08:20:35;;;;;;;25.55;17.35;;;3.50;95.50;;;;;;5049018;28;20435;-81
2022/03/03 08:23:02;;;;;;;26.05;17.00;;;3.60;95.60;;;;;;5049400;28;20058;-81
2022/03/03 08:25:29;;;;;;;24.33;17.30;;;3.60;95.40;;;;;;5049171;28;20398;-81
2022/03/03 08:27:55;;;;;;;28.58;17.65;;;3.70;95.50;;;;;;5030073;28;20032;-81
2022/03/03 08:30:22;;;;;;;28.60;17.27;;;3.80;95.40;;;;;;5033252;28;20040;-81
2022/03/03 08:33:11;;;;;;;29.30;18.67;;;3.90;95.20;;;;;;5052431;28;20048;-81
2022/03/03 08:35:40;;;;;;;27.38;18.08;;;4.00;95.20;;;;;;5053493;28;20055;-81
2022/03/03 08:38:11;;;;;;;26.02;17.08;;;4.10;94.90;;;;;;5053097;28;20056;-82
2022/03/03 08:40:37;;;;;;;26.90;18.38;;;4.20;95.00;;;;;;5052215;28;20041;-81
2022/03/03 08:43:05;;;;;;;27.40;17.60;;;4.30;95.00;;;;;;5035925;28;20409;-81
2022/03/03 08:45:35;;;;;;;24.23;17.63;;;4.50;94.90;;;;;;5052209;28;20045;-81
2022/03/03 08:48:06;;;;;;;26.17;17.98;;;4.60;94.60;;;;;;5052353;28;20060;-81
2022/03/03 08:50:34;;;;;;;25.23;18.15;;;4.60;94.20;;;;;;5060446;28;20048;-79
2022/03/03 08:53:01;;;;;;;27.70;18.20;;;4.70;94.00;;;;;;5054176;28;20068;-81
2022/03/03 08:55:28;;;;;;;29.30;18.23;;;4.90;94.10;;;;;;5053995;28;20410;-81
2022/03/03 08:57:54;;;;;;;24.40;18.40;;;5.00;94.20;;;;;;5053754;28;20490;-80
2022/03/03 09:00:21;;;;;;;28.48;19.15;;;5.10;94.20;;;;;;5053356;28;20041;-81
2022/03/03 09:02:47;;;;;;;28.45;19.23;;;5.20;94.00;;;;;;5052760;28;20129;-82
2022/03/03 09:05:13;;;;;;;30.20;18.38;;;5.30;93.70;;;;;;5052557;28;20084;-82
2022/03/03 09:07:39;;;;;;;25.92;18.23;;;5.40;93.40;;;;;;5035909;28;20447;-82
2022/03/03 09:10:06;;;;;;;25.83;18.17;;;5.50;93.10;;;;;;5035599;28;20486;-82
2022/03/03 09:12:32;;;;;;;27.98;19.17;;;5.60;93.00;;;;;;5035687;28;20041;-83
2022/03/03 09:14:58;;;;;;;28.23;18.67;;;5.80;92.40;;;;;;5052592;28;20048;-82
2022/03/03 09:17:24;;;;;;;31.45;19.80;;;5.80;92.20;;;;;;5034789;28;20045;-82
2022/03/03 09:19:50;;;;;;;29.10;18.25;;;6.00;92.10;;;;;;5052384;28;20067;-82
2022/03/03 09:22:15;;;;;;;27.98;20.15;;;6.10;91.80;;;;;;5052144;28;20548;-82
2022/03/03 09:24:41;;;;;;;25.05;18.67;;;6.20;91.80;;;;;;5035698;28;20044;-82
2022/03/03 09:27:07;;;;;;;24.75;17.50;;;6.40;91.10;;;;;;5035711;28;20437;-82
2022/03/03 09:29:33;;;;;;;26.63;18.92;;;6.50;90.90;;;;;;5034695;28;20037;-82
2022/03/03 09:32:03;;;;;;;22.45;17.27;;;6.60;90.70;;;;;;5050069;28;20029;-82
2022/03/03 09:34:29;;;;;;;23.27;17.40;;;6.70;90.20;;;;;;5051981;28;20044;-82
2022/03/03 09:36:55;;;;;;;25.85;18.50;;;6.80;89.60;;;;;;5051647;28;20037;-82
2022/03/03 09:39:21;;;;;;;28.98;18.60;;;6.90;88.50;;;;;;5035312;28;20033;-82
2022/03/03 09:41:47;;;;;;;26.50;19.45;;;7.00;87.40;;;;;;5050846;28;20028;-82
2022/03/03 09:44:13;;;;;;;24.95;18.60;;;7.10;87.10;;;;;;5051050;28;20497;-82
2022/03/03 09:46:40;;;;;;;25.75;18.33;;;7.30;86.60;;;;;;5050078;28;20394;-82
2022/03/03 09:49:06;;;;;;;22.55;17.38;;;7.40;85.80;;;;;;5034717;28;20037;-82
2022/03/03 09:51:32;;;;;;;24.75;18.25;;;7.50;84.80;;;;;;5050667;28;20406;-82
2022/03/03 09:53:58;;;;;;;24.15;17.10;;;7.60;83.40;;;;;;5050173;28;20037;-82
2022/03/03 09:56:24;;;;;;;26.20;17.52;;;7.70;82.90;;;;;;5035037;28;20049;-82
2022/03/03 09:58:49;;;;;;;26.13;17.38;;;7.80;81.70;;;;;;5051024;28;20076;-82
2022/03/03 10:01:17;;;;;;;24.25;17.10;;;7.90;81.20;;;;;;5050951;28;20045;-83
2022/03/03 10:03:47;;;;;;;22.70;17.58;;;8.00;80.70;;;;;;5033975;28;20102;-82
2022/03/03 10:06:13;;;;;;;22.08;16.73;;;8.20;79.80;;;;;;5031965;28;20056;-82
2022/03/03 10:08:39;;;;;;;24.63;18.15;;;8.30;78.70;;;;;;5033173;28;20171;-82
2022/03/03 10:11:07;;;;;;;22.08;16.67;;;8.40;78.30;;;;;;5049473;28;20120;-82
2022/03/03 10:13:50;;;;;;;21.88;16.50;;;8.50;77.50;;;;;;5051065;28;20044;-82
2022/03/03 10:16:20;;;;;;;;;;;8.60;75.70;;;;;;5050819;28;20513;-83
2022/03/03 10:19:03;;;;;;;23.98;16.92;;;8.70;74.20;;;;;;5034637;28;19916;-82
2022/03/03 10:21:30;;;;;;;22.23;16.45;;;8.80;74.70;;;;;;5051105;28;20394;-83
2022/03/03 10:23:57;;;;;;;22.25;16.10;;;9.00;73.80;;;;;;5034311;28;20044;-83
2022/03/03 10:26:40;;;;;;;21.42;15.63;;;9.10;73.50;;;;;;5034191;28;20096;-83
2022/03/03 10:29:15;;;;;;;;;;;9.20;72.00;;;;;;5051434;28;20125;-83
2022/03/03 10:31:48;;;;;;;20.85;15.60;;;9.40;70.90;;;;;;5050592;28;20377;-83
2022/03/03 10:34:22;;;;;;;21.02;15.90;;;9.50;71.20;;;;;;5034222;28;20646;-83
2022/03/03 10:37:09;;;;;;;24.05;15.95;;;9.60;70.80;;;;;;5048735;28;20087;-83
2022/03/03 10:39:38;;;;;;;21.23;16.02;;;9.80;71.20;;;;;;5050192;28;20090;-83
2022/03/03 10:42:19;;;;;;;21.80;16.83;;;10.00;70.50;;;;;;5033580;28;20045;-83
2022/03/03 10:44:49;;;;;;;20.55;15.73;;;10.10;69.30;;;;;;5050488;28;20049;-83
2022/03/03 10:47:17;;;;;;;19.90;15.30;;;10.30;69.40;;;;;;5034358;28;20029;-83
2022/03/03 10:49:53;;;;;;;20.65;14.90;;;10.40;67.90;;;;;;5033838;28;20033;-83
2022/03/03 10:52:25;;;;;;;19.88;15.45;;;10.50;66.30;;;;;;5050241;28;20041;-83
2022/03/03 10:54:58;;;;;;;20.92;15.40;;;10.60;65.20;;;;;;5033375;28;20079;-83
2022/03/03 10:57:34;;;;;;;19.38;15.32;;;10.70;64.20;;;;;;5050300;28;20044;-83
2022/03/03 11:00:27;;;;;;;19.40;14.65;;;10.80;65.00;;;;;;5032827;28;20490;-83
2022/03/03 11:03:04;;;;;;;19.13;14.63;;;10.90;65.40;;;;;;5050327;28;20045;-83
2022/03/03 11:05:30;;;;;;;18.85;14.85;;;11.10;64.00;;;;;;5049387;28;20049;-83
2022/03/03 11:07:57;;;;;;;20.10;15.25;;;11.20;64.10;;;;;;5049958;28;20079;-83
2022/03/03 11:10:29;;;;;;;20.00;15.73;;;11.30;63.70;;;;;;5050092;28;20048;-83
2022/03/03 11:12:55;;;;;;;20.67;15.23;;;11.50;63.20;;;;;;5054220;28;20520;-83
2022/03/03 11:15:23;;;;;;;19.95;14.98;;;11.60;61.80;;;;;;5070223;28;20040;-83
2022/03/03 11:17:50;;;;;;;20.13;14.05;;;11.70;60.90;;;;;;5053561;28;20559;-81
2022/03/03 11:20:17;;;;;;;17.77;14.98;;;11.90;60.80;;;;;;5052323;28;20048;-81
2022/03/03 11:22:44;;;;;;;18.15;14.55;;;12.00;60.30;;;;;;5070276;28;20119;-83
2022/03/03 11:25:16;;;;;;;18.70;14.57;;;12.10;59.50;;;;;;5069783;28;20044;-81
2022/03/03 11:27:44;;;;;;;17.67;14.23;;;12.20;59.10;;;;;;5053434;28;20040;-81
2022/03/03 11:30:16;;;;;;;18.63;14.52;;;12.30;58.40;;;;;;5052873;28;20508;-81
2022/03/03 11:32:43;;;;;;;16.45;13.02;;;12.40;57.50;;;;;;5069882;28;20044;-82
2022/03/03 11:35:11;;;;;;;17.55;13.38;;;12.50;56.70;;;;;;5070082;28;20051;-83
2022/03/03 11:37:42;;;;;;;14.30;12.25;;;12.50;55.60;;;;;;5069810;28;20044;-83
2022/03/03 11:40:16;;;;;;;17.15;12.75;;;12.60;54.70;;;;;;5068935;28;20041;-82
2022/03/03 11:42:56;;;;;;;16.38;12.82;;;12.70;54.40;;;;;;5069737;28;20120;-83
2022/03/03 11:45:34;;;;;;;18.65;13.77;;;12.80;54.20;;;;;;5049314;28;20041;-83
2022/03/03 11:48:11;;;;;;;17.35;12.63;;;12.90;53.50;;;;;;5033108;28;20490;-83
2022/03/03 11:50:37;;;;;;;15.48;12.57;;;13.00;53.90;;;;;;5049886;28;20041;-82
2022/03/03 11:53:02;;;;;;;16.45;12.80;;;13.10;53.60;;;;;;5049722;28;20060;-83
2022/03/03 11:55:41;;;;;;;16.80;12.27;;;13.20;53.40;;;;;;5049774;28;20040;-82
2022/03/03 11:58:18;;;;;;;17.27;13.68;;;13.40;52.20;;;;;;5032947;28;20045;-83
2022/03/03 12:00:47;;;;;;;15.38;13.27;;;13.50;52.90;;;;;;5031802;28;20587;-83
2022/03/03 12:03:17;;;;;;;16.88;13.98;;;13.70;52.80;;;;;;5032108;28;20524;-83
2022/03/03 12:05:45;;;;;;;14.90;12.10;;;13.90;51.80;;;;;;5050815;28;20056;-83
2022/03/03 12:08:13;;;;;;;15.57;12.18;;;14.00;51.80;;;;;;5053669;28;20402;-82
2022/03/03 12:10:57;;;;;;;14.18;12.18;;;14.10;51.00;;;;;;5037005;28;20118;-83
2022/03/03 12:13:51;;;;;;;14.88;11.65;;;14.20;51.30;;;;;;5036983;28;20104;-83
2022/03/03 12:16:30;;;;;;;14.90;11.38;;;14.20;50.30;;;;;;5052818;28;20053;-83
2022/03/03 12:18:55;;;;;;;13.82;11.50;;;14.30;49.90;;;;;;5052699;28;20048;-83
2022/03/03 12:21:35;;;;;;;14.32;11.30;;;14.50;50.80;;;;;;5051133;28;20056;-82
2022/03/03 12:24:13;;;;;;;15.75;12.93;;;14.70;49.90;;;;;;5051794;28;20045;-82
2022/03/03 12:26:51;;;;;;;15.15;11.68;;;14.90;50.30;;;;;;5052636;28;20383;-82
2022/03/03 12:29:39;;;;;;;15.45;12.55;;;15.00;50.00;;;;;;5052856;28;20494;-82
2022/03/03 12:32:28;;;;;;;15.23;12.70;;;15.20;48.60;;;;;;5052469;28;20063;-81
2022/03/03 12:35:02;;;;;;;17.52;12.65;;;15.60;49.50;;;;;;5052980;28;20055;-82
2022/03/03 12:37:29;;;;;;;14.55;11.98;;;15.70;48.30;;;;;;5053192;28;20037;-82
2022/03/03 12:39:58;;;;;;;18.35;12.80;;;15.90;48.60;;;;;;5053063;28;20399;-82